createdAt,value
2019-04-01T00:00:48.232Z,52.23
2019-04-01T00:03:16.622Z,56.23
2019-04-01T00:05:45.023Z,58.33
2019-04-01T00:08:13.398Z,63.52
2019-04-01T00:10:41.775Z,58.78
2019-04-01T00:13:10.184Z,53.60
2019-04-01T00:15:38.557Z,57.70
2019-04-01T00:18:06.946Z,53.58
2019-04-01T00:20:35.243Z,57.25
2019-04-01T00:23:03.888Z,54.10
2019-04-01T00:25:32.450Z,51.42
2019-04-01T00:28:00.852Z,53.08
2019-04-01T00:30:29.232Z,51.10
2019-04-01T00:32:57.628Z,53.98
2019-04-01T00:35:26.011Z,58.08
2019-04-01T00:37:54.412Z,59.58
2019-04-01T00:40:22.820Z,56.37
2019-04-01T00:42:55.926Z,56.40
2019-04-01T00:47:53.653Z,57.30
2019-04-01T00:50:22.032Z,57.58
2019-04-01T00:52:50.457Z,60.40
2019-04-01T00:55:18.833Z,61.80
2019-04-01T00:57:47.230Z,58.87
2019-04-01T01:00:16.108Z,54.23
2019-04-01T01:02:44.502Z,57.27
2019-04-01T01:05:12.888Z,54.95
2019-04-01T01:07:41.274Z,56.55
2019-04-01T01:10:09.656Z,59.58
2019-04-01T01:12:38.056Z,54.10
2019-04-01T01:15:07.172Z,53.23
2019-04-01T01:17:35.576Z,57.20
2019-04-01T01:20:05.586Z,55.45
2019-04-01T01:22:33.919Z,54.67
2019-04-01T01:25:02.309Z,54.33
2019-04-01T01:27:30.720Z,57.55
2019-04-01T01:29:59.096Z,56.85
2019-04-01T01:32:27.492Z,57.85
2019-04-01T01:34:55.883Z,62.17
2019-04-01T01:37:26.382Z,56.70
2019-04-01T01:39:55.894Z,59.50
2019-04-01T01:42:24.279Z,55.45
2019-04-01T01:44:52.672Z,60.63
2019-04-01T01:47:21.048Z,58.58
2019-04-01T01:49:49.434Z,55.75
2019-04-01T01:52:17.814Z,58.83
2019-04-01T01:54:46.233Z,52.35
2019-04-01T01:57:14.607Z,61.60
2019-04-01T01:59:43.075Z,60.23
2019-04-01T02:02:11.431Z,63.60
2019-04-01T02:04:39.823Z,56.45
2019-04-01T02:07:08.204Z,54.50
2019-04-01T02:09:36.615Z,58.17
2019-04-01T02:12:04.992Z,54.73
2019-04-01T02:14:33.392Z,58.13
2019-04-01T02:17:01.763Z,57.03
2019-04-01T02:19:30.497Z,54.30
2019-04-01T02:21:58.839Z,60.38
2019-04-01T02:24:27.226Z,62.35
2019-04-01T02:26:55.616Z,56.73
2019-04-01T02:29:24.006Z,59.18
2019-04-01T02:31:52.317Z,53.78
2019-04-01T02:34:20.711Z,62.45
2019-04-01T02:36:49.078Z,60.38
2019-04-01T02:39:17.485Z,58.65
2019-04-01T02:41:45.890Z,60.92
2019-04-01T02:44:14.284Z,59.10
2019-04-01T02:46:42.659Z,61.95
2019-04-01T02:49:11.076Z,61.60
2019-04-01T02:51:39.458Z,64.55
2019-04-01T02:54:07.896Z,56.08
2019-04-01T02:56:36.243Z,59.08
2019-04-01T02:59:04.662Z,57.27
2019-04-01T03:01:33.024Z,61.85
2019-04-01T03:04:01.415Z,60.40
2019-04-01T03:06:29.783Z,56.70
2019-04-01T03:08:58.146Z,59.18
2019-04-01T03:11:26.473Z,61.70
2019-04-01T03:13:54.849Z,62.48
2019-04-01T03:16:23.235Z,59.03
2019-04-01T03:18:51.599Z,61.70
2019-04-01T03:21:19.983Z,58.70
2019-04-01T03:23:48.352Z,58.30
2019-04-01T03:26:16.752Z,64.58
2019-04-01T03:28:45.131Z,58.83
2019-04-01T03:31:13.535Z,61.33
2019-04-01T03:33:41.918Z,62.00
2019-04-01T03:36:10.354Z,60.73
2019-04-01T03:38:39.064Z,60.25
2019-04-01T03:41:07.461Z,59.10
2019-04-01T03:43:35.834Z,62.80
2019-04-01T03:46:04.226Z,65.57
2019-04-01T03:48:32.523Z,59.77
2019-04-01T03:51:00.920Z,60.45
2019-04-01T03:53:29.306Z,65.17
2019-04-01T03:55:57.703Z,56.73
2019-04-01T03:58:26.104Z,60.43
2019-04-01T04:00:54.520Z,62.60
2019-04-01T04:03:22.890Z,63.02
2019-04-01T04:05:51.284Z,59.35
2019-04-01T04:08:19.655Z,60.17
2019-04-01T04:10:48.071Z,63.65
2019-04-01T04:13:16.453Z,65.78
2019-04-01T04:15:44.845Z,69.17
2019-04-01T04:18:13.211Z,64.42
2019-04-01T04:20:41.631Z,70.45
2019-04-01T04:23:10.002Z,64.90
2019-04-01T04:25:38.465Z,71.70
2019-04-01T04:28:06.848Z,63.87
2019-04-01T04:30:35.316Z,68.25
2019-04-01T04:33:04.153Z,71.15
2019-04-01T04:35:32.620Z,65.97
2019-04-01T04:38:00.997Z,71.40
2019-04-01T04:40:29.367Z,72.78
2019-04-01T04:42:57.764Z,81.90
2019-04-01T04:45:26.136Z,81.97
2019-04-01T04:47:54.527Z,83.03
2019-04-01T04:50:22.907Z,73.15
2019-04-01T04:52:51.295Z,78.37
2019-04-01T04:55:19.666Z,70.87
2019-04-01T04:57:47.990Z,79.30
2019-04-01T05:00:16.453Z,74.05
2019-04-01T05:02:44.834Z,71.95
2019-04-01T05:05:13.211Z,76.72
2019-04-01T05:07:41.608Z,72.32
2019-04-01T05:10:09.988Z,71.60
2019-04-01T05:12:38.472Z,76.60
2019-04-01T05:15:07.309Z,71.75
2019-04-01T05:17:36.947Z,74.27
2019-04-01T05:20:05.407Z,72.90
2019-04-01T05:22:34.074Z,69.62
2019-04-01T05:25:03.121Z,72.42
2019-04-01T05:27:31.535Z,71.42
2019-04-01T05:29:59.966Z,81.82
2019-04-01T05:32:28.440Z,75.32
2019-04-01T05:34:56.839Z,78.00
2019-04-01T05:37:25.222Z,68.05
2019-04-01T05:39:53.600Z,76.77
2019-04-01T05:42:21.991Z,76.67
2019-04-01T05:44:50.365Z,75.80
2019-04-01T05:47:20.404Z,71.75
2019-04-01T05:49:48.951Z,65.50
2019-04-01T05:52:17.335Z,76.22
2019-04-01T05:54:45.630Z,71.72
2019-04-01T05:57:14.425Z,70.47
2019-04-01T05:59:43.038Z,66.77
2019-04-01T06:02:11.504Z,66.85
2019-04-01T06:04:39.876Z,64.00
2019-04-01T06:07:08.282Z,65.52
2019-04-01T06:09:36.670Z,69.85
2019-04-01T06:12:05.088Z,59.55
2019-04-01T06:14:33.541Z,63.08
2019-04-01T06:17:01.940Z,60.78
2019-04-01T06:19:30.332Z,66.53
2019-04-01T06:21:58.719Z,62.88
2019-04-01T06:24:27.125Z,65.03
2019-04-01T06:26:55.512Z,59.80
2019-04-01T06:29:23.917Z,63.08
2019-04-01T06:31:52.366Z,66.15
2019-04-01T06:34:20.841Z,62.33
2019-04-01T06:36:49.231Z,64.58
2019-04-01T06:39:17.623Z,63.65
2019-04-01T06:41:46.106Z,61.53
2019-04-01T06:44:14.510Z,62.83
2019-04-01T06:46:42.946Z,65.10
2019-04-01T06:49:11.348Z,64.85
2019-04-01T06:51:39.734Z,59.53
2019-04-01T06:54:08.141Z,67.55
2019-04-01T06:56:36.509Z,68.42
2019-04-01T06:59:04.906Z,60.75
2019-04-01T07:01:33.366Z,66.15
2019-04-01T07:04:01.754Z,59.53
2019-04-01T07:06:30.130Z,66.20
2019-04-01T07:08:58.527Z,61.02
2019-04-01T07:11:26.933Z,59.03
2019-04-01T07:13:55.397Z,61.42
2019-04-01T07:16:23.777Z,64.05
2019-04-01T07:18:52.166Z,61.85
2019-04-01T07:21:20.466Z,62.48
2019-04-01T07:23:48.872Z,62.15
2019-04-01T07:26:17.252Z,62.23
2019-04-01T07:28:45.656Z,57.10
2019-04-01T07:31:14.047Z,60.25
2019-04-01T07:33:42.511Z,57.88
2019-04-01T07:36:10.904Z,59.30
2019-04-01T07:38:39.313Z,60.25
2019-04-01T07:41:07.716Z,56.85
2019-04-01T07:43:36.107Z,52.90
2019-04-01T07:46:07.891Z,59.30
2019-04-01T07:48:34.535Z,57.23
2019-04-01T07:51:02.899Z,59.42
2019-04-01T07:53:31.222Z,55.43
2019-04-01T07:56:02.355Z,63.80
2019-04-01T07:58:29.662Z,55.58
2019-04-01T08:00:58.037Z,56.15
2019-04-01T08:03:26.440Z,51.77
2019-04-01T08:05:54.819Z,51.05
2019-04-01T08:08:23.210Z,53.02
2019-04-01T08:10:51.592Z,54.33
2019-04-01T08:13:19.980Z,55.50
2019-04-01T08:15:48.376Z,54.15
2019-04-01T08:18:16.753Z,59.88
2019-04-01T08:20:45.235Z,53.52
2019-04-01T08:23:13.612Z,53.83
2019-04-01T08:25:42.019Z,58.63
2019-04-01T08:28:10.393Z,54.63
2019-04-01T08:30:38.791Z,54.77
2019-04-01T08:33:07.179Z,57.35
2019-04-01T08:35:35.584Z,52.33
2019-04-01T08:38:03.962Z,53.20
2019-04-01T08:40:32.371Z,50.05
2019-04-01T08:43:00.754Z,53.48
2019-04-01T08:45:29.180Z,49.20
2019-04-01T08:47:57.559Z,50.12
2019-04-01T08:50:25.955Z,53.83
2019-04-01T08:52:54.330Z,50.73
2019-04-01T08:55:22.743Z,49.88
2019-04-01T08:57:51.132Z,45.67
2019-04-01T09:00:19.536Z,52.10
2019-04-01T09:02:47.924Z,45.55
2019-04-01T09:05:16.319Z,48.65
2019-04-01T09:07:44.721Z,48.02
2019-04-01T09:10:13.114Z,46.45
2019-04-01T09:12:41.488Z,51.25
2019-04-01T09:15:09.960Z,49.60
2019-04-01T09:17:40.522Z,46.92
2019-04-01T09:20:09.083Z,46.37
2019-04-01T09:22:37.480Z,45.38
2019-04-01T09:25:06.244Z,46.63
2019-04-01T09:27:34.621Z,47.20
2019-04-01T09:30:03.008Z,47.73
2019-04-01T09:32:31.387Z,48.15
2019-04-01T09:34:59.788Z,49.95
2019-04-01T09:37:28.167Z,51.02
2019-04-01T09:39:56.571Z,45.10
2019-04-01T09:42:24.943Z,49.00
2019-04-01T09:44:53.348Z,46.30
2019-04-01T09:47:21.771Z,43.58
2019-04-01T09:49:50.145Z,46.28
2019-04-01T09:52:18.523Z,46.63
2019-04-01T09:54:46.927Z,46.65
2019-04-01T09:57:17.806Z,43.98
2019-04-01T09:59:45.359Z,45.08
2019-04-01T10:02:13.756Z,45.60
2019-04-01T10:04:42.148Z,45.28
2019-04-01T10:07:10.611Z,46.77
2019-04-01T10:09:39.015Z,43.92
2019-04-01T10:12:07.428Z,42.30
2019-04-01T10:14:35.821Z,38.58
2019-04-01T10:17:04.206Z,43.75
2019-04-01T10:19:32.589Z,39.25
2019-04-01T10:22:00.993Z,45.43
2019-04-01T10:24:29.384Z,41.48
2019-04-01T10:26:57.782Z,41.15
2019-04-01T10:29:26.151Z,43.98
2019-04-01T10:31:54.476Z,40.08
2019-04-01T10:34:22.888Z,42.15
2019-04-01T10:36:53.207Z,38.25
2019-04-01T10:39:21.302Z,38.50
2019-04-01T10:41:49.708Z,40.70
2019-04-01T10:44:18.955Z,40.85
2019-04-01T10:46:47.350Z,38.95
2019-04-01T10:49:15.756Z,38.17
2019-04-01T10:51:44.146Z,39.78
2019-04-01T10:54:12.588Z,40.12
2019-04-01T10:56:40.919Z,36.40
2019-04-01T10:59:09.317Z,37.88
2019-04-01T11:01:37.731Z,39.33
2019-04-01T11:04:06.194Z,35.75
2019-04-01T11:06:34.647Z,37.48
2019-04-01T11:09:04.589Z,34.27
2019-04-01T11:11:32.992Z,30.10
2019-04-01T11:14:01.384Z,32.23
2019-04-01T11:16:31.691Z,29.10
2019-04-01T11:18:59.779Z,30.45
2019-04-01T11:21:28.184Z,30.08
2019-04-01T11:23:56.542Z,27.22
2019-04-01T11:26:24.861Z,32.00
2019-04-01T11:28:53.243Z,28.67
2019-04-01T11:31:21.670Z,30.12
2019-04-01T11:33:50.068Z,25.65
2019-04-01T11:36:18.435Z,28.87
2019-04-01T11:38:46.840Z,35.38
2019-04-01T11:41:15.334Z,32.90
2019-04-01T11:43:43.709Z,26.97
2019-04-01T11:46:12.702Z,30.72
2019-04-01T11:48:41.351Z,30.90
2019-04-01T11:51:12.972Z,22.75
2019-04-01T11:53:41.382Z,31.37
2019-04-01T11:56:10.130Z,32.85
2019-04-01T11:58:39.131Z,30.50
2019-04-01T12:01:07.556Z,26.82
2019-04-01T12:03:35.926Z,26.62
2019-04-01T12:06:04.393Z,31.80
2019-04-01T12:08:32.749Z,31.35
2019-04-01T12:11:01.204Z,28.35
2019-04-01T12:13:29.523Z,25.72
2019-04-01T12:15:57.904Z,29.15
2019-04-01T12:18:26.439Z,27.48
2019-04-01T12:20:54.802Z,33.28
2019-04-01T12:23:23.270Z,29.25
2019-04-01T12:25:51.565Z,30.23
2019-04-01T12:28:19.959Z,28.20
2019-04-01T12:30:48.420Z,30.45
2019-04-01T12:33:16.786Z,27.45
2019-04-01T12:35:46.033Z,29.18
2019-04-01T12:38:14.441Z,32.10
2019-04-01T12:40:42.802Z,28.77
2019-04-01T12:43:11.198Z,28.70
2019-04-01T12:45:39.985Z,28.60
2019-04-01T12:48:08.467Z,29.05
2019-04-01T12:50:36.906Z,25.30
2019-04-01T12:53:05.222Z,33.48
2019-04-01T12:55:33.524Z,28.92
2019-04-01T12:58:01.927Z,24.72
2019-04-01T13:00:30.306Z,28.98
2019-04-01T13:02:58.700Z,31.05
2019-04-01T13:05:27.084Z,25.50
2019-04-01T13:07:55.485Z,25.75
2019-04-01T13:10:23.857Z,26.50
2019-04-01T13:12:54.141Z,26.65
2019-04-01T13:15:22.268Z,29.90
2019-04-01T13:17:50.731Z,26.02
2019-04-01T13:20:19.040Z,27.60
2019-04-01T13:22:47.430Z,25.65
2019-04-01T13:25:15.794Z,24.07
2019-04-01T13:27:44.187Z,24.65
2019-04-01T13:30:12.554Z,25.32
2019-04-01T13:32:40.960Z,25.35
2019-04-01T13:35:09.336Z,24.90
2019-04-01T13:37:37.720Z,25.80
2019-04-01T13:40:06.263Z,26.35
2019-04-01T13:42:34.643Z,25.40
2019-04-01T13:45:03.303Z,23.30
2019-04-01T13:47:31.676Z,25.72
2019-04-01T13:50:00.088Z,25.23
2019-04-01T13:52:28.532Z,26.42
2019-04-01T13:54:56.927Z,26.02
2019-04-01T13:57:25.236Z,25.02
2019-04-01T13:59:53.632Z,22.95
2019-04-01T14:02:22.007Z,23.38
2019-04-01T14:04:50.442Z,21.52
2019-04-01T14:07:18.743Z,21.17
2019-04-01T14:09:47.149Z,23.27
2019-04-01T14:12:15.550Z,25.82
2019-04-01T14:14:43.880Z,25.02
2019-04-01T14:17:12.249Z,24.25
2019-04-01T14:19:40.723Z,23.77
2019-04-01T14:22:09.090Z,24.82
2019-04-01T14:24:37.882Z,21.57
2019-04-01T14:27:06.261Z,25.43
2019-04-01T14:29:34.791Z,22.70
2019-04-01T14:32:04.559Z,22.67
2019-04-01T14:34:33.114Z,21.52
2019-04-01T14:37:01.491Z,22.73
2019-04-01T14:39:34.557Z,25.43
2019-04-01T14:41:59.910Z,23.62
2019-04-01T14:44:28.314Z,20.23
2019-04-01T14:46:56.692Z,22.45
2019-04-01T14:49:25.091Z,19.48
2019-04-01T14:51:53.463Z,20.35
2019-04-01T14:54:21.851Z,26.27
2019-04-01T14:56:50.232Z,22.42
2019-04-01T14:59:18.618Z,19.65
2019-04-01T15:01:46.923Z,19.70
2019-04-01T15:04:15.320Z,24.35
2019-04-01T15:06:45.116Z,20.17
2019-04-01T15:09:13.639Z,24.52
2019-04-01T15:11:42.078Z,21.55
2019-04-01T15:14:10.706Z,22.73
2019-04-01T15:16:39.074Z,23.60
2019-04-01T15:19:07.532Z,22.98
2019-04-01T15:21:35.906Z,22.42
2019-04-01T15:24:04.284Z,22.15
2019-04-01T15:26:33.847Z,22.07
2019-04-01T15:29:02.348Z,19.37
2019-04-01T15:31:30.763Z,21.62
2019-04-01T15:33:59.210Z,18.60
2019-04-01T15:36:27.618Z,20.40
2019-04-01T15:38:55.987Z,20.32
2019-04-01T15:41:26.690Z,23.90
2019-04-01T15:43:54.414Z,18.98
2019-04-01T15:46:22.815Z,20.48
2019-04-01T15:48:51.245Z,25.17
2019-04-01T15:51:19.579Z,19.32
2019-04-01T15:53:47.957Z,21.12
2019-04-01T15:56:16.356Z,19.32
2019-04-01T15:58:44.739Z,20.48
2019-04-01T16:01:13.164Z,21.07
2019-04-01T16:03:41.539Z,20.60
2019-04-01T16:06:09.943Z,20.35
2019-04-01T16:08:38.320Z,23.80
2019-04-01T16:11:06.946Z,23.00
2019-04-01T16:13:35.329Z,25.52
2019-04-01T16:16:03.943Z,21.23
2019-04-01T16:18:32.362Z,22.87
2019-04-01T16:21:00.768Z,25.27
2019-04-01T16:23:29.149Z,22.85
2019-04-01T16:25:58.193Z,28.92
2019-04-01T16:28:26.853Z,22.75
2019-04-01T16:30:56.194Z,23.62
2019-04-01T16:33:25.591Z,23.52
2019-04-01T16:35:54.034Z,20.68
2019-04-01T16:38:22.417Z,22.73
2019-04-01T16:40:52.432Z,20.82
2019-04-01T16:43:20.891Z,22.48
2019-04-01T16:45:49.291Z,21.48
2019-04-01T16:48:17.855Z,22.90
2019-04-01T16:50:46.248Z,23.67
2019-04-01T16:53:14.702Z,21.52
2019-04-01T16:55:43.416Z,20.70
2019-04-01T16:58:12.078Z,23.83
2019-04-01T17:00:40.521Z,20.12
2019-04-01T17:03:08.959Z,22.62
2019-04-01T17:05:37.504Z,23.55
2019-04-01T17:08:05.930Z,24.23
2019-04-01T17:10:34.475Z,24.35
2019-04-01T17:13:03.320Z,26.50
2019-04-01T17:15:31.809Z,33.38
2019-04-01T17:18:00.282Z,23.32
2019-04-01T17:20:28.728Z,24.77
2019-04-01T17:22:57.124Z,24.10
2019-04-01T17:25:26.269Z,24.63
2019-04-01T17:27:55.198Z,25.10
2019-04-01T17:30:23.684Z,15.98
2019-04-01T17:32:52.093Z,22.60
2019-04-01T17:35:20.471Z,23.15
2019-04-01T17:37:48.872Z,21.70
2019-04-01T17:40:17.533Z,21.00
2019-04-01T17:42:46.526Z,20.48
2019-04-01T17:45:31.051Z,22.45
2019-04-01T17:48:00.565Z,22.20
2019-04-01T17:50:29.468Z,21.23
2019-04-01T17:52:57.969Z,24.32
2019-04-01T17:55:26.350Z,26.27
2019-04-01T17:57:54.748Z,20.85
2019-04-01T18:00:24.769Z,20.82
2019-04-01T18:02:53.232Z,23.27
2019-04-01T18:05:21.646Z,20.08
2019-04-01T18:07:50.042Z,22.87
2019-04-01T18:10:18.415Z,17.65
2019-04-01T18:12:46.807Z,19.65
2019-04-01T18:15:16.154Z,21.42
2019-04-01T18:17:44.691Z,21.87
2019-04-01T18:20:13.068Z,23.95
2019-04-01T18:22:41.466Z,17.52
2019-04-01T18:25:09.937Z,17.98
2019-04-01T18:27:38.585Z,20.12
2019-04-01T18:30:08.554Z,18.17
2019-04-01T18:32:36.950Z,18.52
2019-04-01T18:35:05.989Z,19.77
2019-04-01T18:37:34.450Z,18.42
2019-04-01T18:40:03.085Z,15.80
2019-04-01T18:42:31.653Z,20.32
2019-04-01T18:44:59.968Z,23.65
2019-04-01T18:47:28.373Z,21.65
2019-04-01T18:49:56.780Z,19.52
2019-04-01T18:52:25.205Z,22.65
2019-04-01T18:54:53.593Z,21.27
2019-04-01T18:57:21.986Z,19.85
2019-04-01T18:59:50.373Z,21.97
2019-04-01T19:02:18.785Z,24.85
2019-04-01T19:04:47.236Z,23.95
2019-04-01T19:07:15.716Z,21.95
2019-04-01T19:09:44.102Z,20.55
2019-04-01T19:12:12.788Z,22.00
2019-04-01T19:14:41.188Z,28.42
2019-04-01T19:17:09.589Z,22.67
2019-04-01T19:19:40.123Z,20.70
2019-04-01T19:22:08.306Z,24.98
2019-04-01T19:24:36.693Z,23.32
2019-04-01T19:27:59.527Z,61.70
2019-04-01T19:30:27.909Z,44.60
2019-04-01T19:32:56.299Z,28.00
2019-04-01T19:35:24.682Z,26.65
2019-04-01T19:37:53.101Z,23.50
2019-04-01T19:40:22.997Z,22.13
2019-04-01T19:42:51.595Z,20.70
2019-04-01T19:45:20.047Z,22.13
2019-04-01T19:47:48.475Z,22.67
2019-04-01T19:50:18.476Z,26.20
2019-04-01T19:52:47.047Z,23.18
2019-04-01T19:55:15.423Z,23.50
2019-04-01T19:57:43.827Z,21.93
2019-04-01T20:00:26.448Z,26.27
2019-04-01T20:02:42.527Z,24.00
2019-04-01T20:05:10.913Z,27.62
2019-04-01T20:07:39.313Z,28.50
2019-04-01T20:10:07.715Z,24.02
2019-04-01T20:12:36.137Z,24.05
2019-04-01T20:15:09.451Z,24.55
2019-04-01T20:17:38.919Z,26.57
2019-04-01T20:20:07.409Z,28.62
2019-04-01T20:22:35.807Z,27.60
2019-04-01T20:25:06.272Z,24.20
2019-04-01T20:27:34.677Z,24.25
2019-04-01T20:30:05.073Z,27.45
2019-04-01T20:32:33.434Z,26.65
2019-04-01T20:35:01.828Z,28.62
2019-04-01T20:37:30.230Z,26.75
2019-04-01T20:39:58.614Z,27.27
2019-04-01T20:42:26.994Z,29.23
2019-04-01T20:44:55.483Z,26.65
2019-04-01T20:47:23.787Z,27.52
2019-04-01T20:49:52.188Z,28.12
2019-04-01T20:52:21.462Z,23.92
2019-04-01T20:54:50.503Z,22.60
2019-04-01T20:57:21.905Z,21.35
2019-04-01T20:59:49.644Z,24.30
2019-04-01T21:02:18.007Z,22.70
2019-04-01T21:04:46.412Z,28.23
2019-04-01T21:07:14.783Z,34.15
2019-04-01T21:09:43.196Z,25.95
2019-04-01T21:12:11.585Z,29.15
2019-04-01T21:14:40.048Z,27.80
2019-04-01T21:17:08.428Z,29.02
2019-04-01T21:19:36.834Z,25.80
2019-04-01T21:22:05.239Z,30.88
2019-04-01T21:24:34.036Z,29.25
2019-04-01T21:27:02.741Z,28.62
2019-04-01T21:29:31.153Z,28.52
2019-04-01T21:31:59.532Z,27.82
2019-04-01T21:34:27.941Z,33.23
2019-04-01T21:36:56.320Z,31.12
2019-04-01T21:39:24.742Z,30.17
2019-04-01T21:41:53.994Z,26.05
2019-04-01T21:44:22.411Z,27.93
2019-04-01T21:46:50.782Z,36.03
2019-04-01T21:49:19.171Z,27.30
2019-04-01T21:51:47.586Z,27.58
2019-04-01T21:54:15.992Z,28.32
2019-04-01T21:56:44.373Z,28.65
2019-04-01T21:59:12.848Z,30.50
2019-04-01T22:01:41.232Z,30.48
2019-04-01T22:04:11.072Z,34.38
2019-04-01T22:06:40.175Z,32.80
2019-04-01T22:09:09.889Z,32.80
2019-04-01T22:11:38.276Z,35.83
2019-04-01T22:14:06.697Z,33.55
2019-04-01T22:16:35.081Z,33.38
2019-04-01T22:19:03.478Z,37.67
2019-04-01T22:21:34.498Z,36.30
2019-04-01T22:24:01.833Z,34.27
2019-04-01T22:26:30.215Z,33.60
2019-04-01T22:28:58.627Z,36.30
2019-04-01T22:31:27.002Z,34.67
2019-04-01T22:33:55.319Z,33.10
2019-04-01T22:36:30.926Z,32.67
2019-04-01T22:38:53.743Z,34.83
2019-04-01T22:41:22.115Z,33.38
2019-04-01T22:43:50.519Z,34.88
2019-04-01T22:46:18.887Z,36.40
2019-04-01T22:48:47.313Z,35.25
2019-04-01T22:51:15.670Z,32.67
2019-04-01T22:53:44.069Z,33.13
2019-04-01T22:56:12.462Z,33.58
2019-04-01T22:58:40.800Z,36.45
2019-04-01T23:01:09.216Z,34.38
2019-04-01T23:03:37.596Z,33.88
2019-04-01T23:06:06.315Z,33.83
2019-04-01T23:08:35.084Z,30.60
2019-04-01T23:11:03.489Z,34.30
2019-04-01T23:13:31.854Z,29.42
2019-04-01T23:16:00.186Z,26.17
2019-04-01T23:18:28.562Z,28.67
2019-04-01T23:20:56.971Z,30.27
2019-04-01T23:23:25.372Z,32.13
2019-04-01T23:25:55.101Z,31.27
2019-04-01T23:28:24.181Z,32.30
2019-04-01T23:30:52.652Z,30.60
2019-04-01T23:33:21.023Z,32.80
2019-04-01T23:35:49.415Z,36.58
2019-04-01T23:38:17.781Z,29.07
2019-04-01T23:40:46.172Z,34.03
2019-04-01T23:43:14.543Z,37.33
2019-04-01T23:45:42.953Z,35.60
2019-04-01T23:48:11.376Z,35.88
2019-04-01T23:50:39.777Z,31.20
2019-04-01T23:53:08.219Z,31.55
2019-04-01T23:55:36.624Z,32.38
2019-04-01T23:58:05.006Z,31.02
